sensor_id;sensor_type;location;lat;lon;timestamp;pressure;altitude;pressure_sealevel;temperature;humidity
15750;BME280;7976;52.526;13.326;2022-12-18T00:01:38;102838.66;;;-2.10;82.99
15750;BME280;7976;52.526;13.326;2022-12-18T00:04:18;102842.31;;;-2.05;83.13
15750;BME280;7976;52.526;13.326;2022-12-18T00:06:46;102847.38;;;-2.07;82.64
15750;BME280;7976;52.526;13.326;2022-12-18T00:09:13;102853.59;;;-2.19;82.46
15750;BME280;7976;52.526;13.326;2022-12-18T00:11:41;102850.88;;;-2.22;82.37
15750;BME280;7976;52.526;13.326;2022-12-18T00:14:10;102847.38;;;-2.24;82.32
15750;BME280;7976;52.526;13.326;2022-12-18T00:16:38;102858.50;;;-2.24;82.31
15750;BME280;7976;52.526;13.326;2022-12-18T00:19:06;102851.69;;;-2.23;82.25
15750;BME280;7976;52.526;13.326;2022-12-18T00:21:34;102859.38;;;-2.23;81.97
15750;BME280;7976;52.526;13.326;2022-12-18T00:24:01;102850.72;;;-2.25;82.55
15750;BME280;7976;52.526;13.326;2022-12-18T00:26:31;102838.50;;;-2.31;81.94
15750;BME280;7976;52.526;13.326;2022-12-18T00:29:05;102845.53;;;-2.44;82.18
15750;BME280;7976;52.526;13.326;2022-12-18T00:31:34;102852.88;;;-2.50;82.76
15750;BME280;7976;52.526;13.326;2022-12-18T00:34:02;102850.81;;;-2.41;82.71
15750;BME280;7976;52.526;13.326;2022-12-18T00:36:30;102852.88;;;-2.34;82.89
15750;BME280;7976;52.526;13.326;2022-12-18T00:39:00;102847.28;;;-2.26;82.82
15750;BME280;7976;52.526;13.326;2022-12-18T00:41:28;102838.06;;;-2.22;82.21
15750;BME280;7976;52.526;13.326;2022-12-18T00:44:16;102849.47;;;-2.33;81.39
15750;BME280;7976;52.526;13.326;2022-12-18T00:46:45;102849.34;;;-2.36;81.38
15750;BME280;7976;52.526;13.326;2022-12-18T00:49:16;102847.06;;;-2.30;81.66
15750;BME280;7976;52.526;13.326;2022-12-18T00:51:43;102850.94;;;-2.38;81.23
15750;BME280;7976;52.526;13.326;2022-12-18T00:54:11;102839.44;;;-2.46;81.55
15750;BME280;7976;52.526;13.326;2022-12-18T00:56:38;102843.47;;;-2.51;81.45
15750;BME280;7976;52.526;13.326;2022-12-18T00:59:05;102841.69;;;-2.53;81.78
15750;BME280;7976;52.526;13.326;2022-12-18T01:01:34;102835.63;;;-2.54;81.86
15750;BME280;7976;52.526;13.326;2022-12-18T01:04:04;102851.28;;;-2.48;82.07
15750;BME280;7976;52.526;13.326;2022-12-18T01:06:31;102846.88;;;-2.51;81.71
15750;BME280;7976;52.526;13.326;2022-12-18T01:08:59;102847.56;;;-2.55;82.12
15750;BME280;7976;52.526;13.326;2022-12-18T01:11:25;102861.00;;;-2.59;82.13
15750;BME280;7976;52.526;13.326;2022-12-18T01:13:53;102860.91;;;-2.61;82.37
15750;BME280;7976;52.526;13.326;2022-12-18T01:16:22;102862.38;;;-2.66;82.20
15750;BME280;7976;52.526;13.326;2022-12-18T01:18:53;102864.78;;;-2.69;82.23
15750;BME280;7976;52.526;13.326;2022-12-18T01:21:22;102869.69;;;-2.73;82.52
15750;BME280;7976;52.526;13.326;2022-12-18T01:23:52;102867.69;;;-2.79;81.97
15750;BME280;7976;52.526;13.326;2022-12-18T01:26:19;102872.66;;;-2.82;82.09
15750;BME280;7976;52.526;13.326;2022-12-18T01:28:47;102878.22;;;-2.73;82.42
15750;BME280;7976;52.526;13.326;2022-12-18T01:31:18;102882.84;;;-2.66;82.38
15750;BME280;7976;52.526;13.326;2022-12-18T01:33:49;102881.41;;;-2.61;82.42
15750;BME280;7976;52.526;13.326;2022-12-18T01:36:22;102873.81;;;-2.59;82.19
15750;BME280;7976;52.526;13.326;2022-12-18T01:38:50;102877.53;;;-2.53;82.46
15750;BME280;7976;52.526;13.326;2022-12-18T01:41:21;102879.63;;;-2.45;82.47
15750;BME280;7976;52.526;13.326;2022-12-18T01:43:52;102885.41;;;-2.49;82.04
15750;BME280;7976;52.526;13.326;2022-12-18T01:46:25;102881.75;;;-2.54;81.95
15750;BME280;7976;52.526;13.326;2022-12-18T01:49:00;102881.13;;;-2.67;81.59
15750;BME280;7976;52.526;13.326;2022-12-18T01:51:30;102881.81;;;-2.69;81.83
15750;BME280;7976;52.526;13.326;2022-12-18T01:53:58;102898.00;;;-2.70;81.64
15750;BME280;7976;52.526;13.326;2022-12-18T01:56:26;102891.84;;;-2.74;81.88
15750;BME280;7976;52.526;13.326;2022-12-18T01:58:59;102894.56;;;-2.71;82.41
15750;BME280;7976;52.526;13.326;2022-12-18T02:01:30;102886.22;;;-2.67;82.20
15750;BME280;7976;52.526;13.326;2022-12-18T02:04:20;102886.38;;;-2.64;82.18
15750;BME280;7976;52.526;13.326;2022-12-18T02:06:56;102890.06;;;-2.59;82.05
15750;BME280;7976;52.526;13.326;2022-12-18T02:09:31;102885.16;;;-2.54;82.42
15750;BME280;7976;52.526;13.326;2022-12-18T02:12:09;102895.81;;;-2.63;81.93
15750;BME280;7976;52.526;13.326;2022-12-18T02:14:46;102895.38;;;-2.72;82.30
15750;BME280;7976;52.526;13.326;2022-12-18T02:17:20;102896.06;;;-2.74;82.47
15750;BME280;7976;52.526;13.326;2022-12-18T02:20:04;102900.56;;;-2.70;82.46
15750;BME280;7976;52.526;13.326;2022-12-18T02:22:49;102901.75;;;-2.64;82.53
15750;BME280;7976;52.526;13.326;2022-12-18T02:25:40;102888.28;;;-2.60;82.48
15750;BME280;7976;52.526;13.326;2022-12-18T02:28:15;102891.81;;;-2.58;82.22
15750;BME280;7976;52.526;13.326;2022-12-18T02:30:47;102895.03;;;-2.62;82.35
15750;BME280;7976;52.526;13.326;2022-12-18T02:33:17;102898.97;;;-2.68;82.31
15750;BME280;7976;52.526;13.326;2022-12-18T02:35:46;102908.31;;;-2.69;82.42
15750;BME280;7976;52.526;13.326;2022-12-18T02:38:15;102917.13;;;-2.64;82.59
15750;BME280;7976;52.526;13.326;2022-12-18T02:40:47;102905.56;;;-2.56;82.39
15750;BME280;7976;52.526;13.326;2022-12-18T02:43:18;102912.63;;;-2.51;82.22
15750;BME280;7976;52.526;13.326;2022-12-18T02:45:53;102913.81;;;-2.45;81.87
15750;BME280;7976;52.526;13.326;2022-12-18T02:48:24;102906.69;;;-2.50;81.60
15750;BME280;7976;52.526;13.326;2022-12-18T02:51:03;102913.03;;;-2.60;81.91
15750;BME280;7976;52.526;13.326;2022-12-18T02:53:43;102916.56;;;-2.74;81.58
15750;BME280;7976;52.526;13.326;2022-12-18T02:56:18;102912.31;;;-2.74;81.96
15750;BME280;7976;52.526;13.326;2022-12-18T02:58:58;102901.69;;;-2.65;82.19
15750;BME280;7976;52.526;13.326;2022-12-18T03:01:42;102910.22;;;-2.65;81.75
15750;BME280;7976;52.526;13.326;2022-12-18T03:04:14;102905.84;;;-2.67;81.51
15750;BME280;7976;52.526;13.326;2022-12-18T03:06:48;102905.28;;;-2.78;81.72
15750;BME280;7976;52.526;13.326;2022-12-18T03:09:22;102911.91;;;-2.81;81.76
15750;BME280;7976;52.526;13.326;2022-12-18T03:11:56;102918.97;;;-2.77;82.16
15750;BME280;7976;52.526;13.326;2022-12-18T03:14:48;102926.88;;;-2.73;81.67
15750;BME280;7976;52.526;13.326;2022-12-18T03:17:19;102913.75;;;-2.79;81.28
15750;BME280;7976;52.526;13.326;2022-12-18T03:19:53;102915.84;;;-2.88;81.16
15750;BME280;7976;52.526;13.326;2022-12-18T03:22:24;102908.97;;;-2.89;81.24
15750;BME280;7976;52.526;13.326;2022-12-18T03:24:55;102914.97;;;-2.88;81.49
15750;BME280;7976;52.526;13.326;2022-12-18T03:27:24;102918.88;;;-2.95;81.83
15750;BME280;7976;52.526;13.326;2022-12-18T03:30:03;102921.59;;;-3.08;81.42
15750;BME280;7976;52.526;13.326;2022-12-18T03:32:42;102918.78;;;-3.12;81.95
15750;BME280;7976;52.526;13.326;2022-12-18T03:35:13;102915.09;;;-3.17;81.90
15750;BME280;7976;52.526;13.326;2022-12-18T03:37:41;102921.13;;;-3.17;81.76
15750;BME280;7976;52.526;13.326;2022-12-18T03:40:09;102916.78;;;-3.18;81.79
15750;BME280;7976;52.526;13.326;2022-12-18T03:42:46;102921.13;;;-3.17;81.87
15750;BME280;7976;52.526;13.326;2022-12-18T03:45:24;102922.72;;;-3.19;82.01
15750;BME280;7976;52.526;13.326;2022-12-18T03:48:00;102923.59;;;-3.18;82.10
15750;BME280;7976;52.526;13.326;2022-12-18T03:50:44;102931.97;;;-3.21;82.05
15750;BME280;7976;52.526;13.326;2022-12-18T03:53:25;102929.81;;;-3.29;81.94
15750;BME280;7976;52.526;13.326;2022-12-18T03:55:56;102925.56;;;-3.29;82.36
15750;BME280;7976;52.526;13.326;2022-12-18T03:58:32;102926.84;;;-3.21;82.45
15750;BME280;7976;52.526;13.326;2022-12-18T04:01:17;102923.75;;;-3.15;82.24
15750;BME280;7976;52.526;13.326;2022-12-18T04:03:48;102922.25;;;-3.12;82.28
15750;BME280;7976;52.526;13.326;2022-12-18T04:06:18;102931.03;;;-3.07;82.20
15750;BME280;7976;52.526;13.326;2022-12-18T04:08:47;102928.66;;;-3.04;81.86
15750;BME280;7976;52.526;13.326;2022-12-18T04:11:17;102931.34;;;-3.01;81.99
15750;BME280;7976;52.526;13.326;2022-12-18T04:13:46;102925.03;;;-3.07;81.85
15750;BME280;7976;52.526;13.326;2022-12-18T04:16:20;102933.25;;;-3.13;81.77
15750;BME280;7976;52.526;13.326;2022-12-18T04:18:51;102938.28;;;-3.14;81.86
15750;BME280;7976;52.526;13.326;2022-12-18T04:21:20;102941.59;;;-3.17;81.98
15750;BME280;7976;52.526;13.326;2022-12-18T04:23:49;102945.81;;;-3.17;81.97
15750;BME280;7976;52.526;13.326;2022-12-18T04:26:19;102938.38;;;-3.13;82.18
15750;BME280;7976;52.526;13.326;2022-12-18T04:28:55;102939.03;;;-3.01;82.10
15750;BME280;7976;52.526;13.326;2022-12-18T04:31:23;102942.41;;;-3.02;81.46
15750;BME280;7976;52.526;13.326;2022-12-18T04:33:50;102942.13;;;-3.06;81.48
15750;BME280;7976;52.526;13.326;2022-12-18T04:36:17;102941.09;;;-3.10;81.65
15750;BME280;7976;52.526;13.326;2022-12-18T04:38:45;102947.66;;;-3.15;81.43
15750;BME280;7976;52.526;13.326;2022-12-18T04:41:14;102954.94;;;-3.22;81.76
15750;BME280;7976;52.526;13.326;2022-12-18T04:43:44;102951.63;;;-3.20;82.13
15750;BME280;7976;52.526;13.326;2022-12-18T04:46:11;102948.44;;;-3.16;82.22
15750;BME280;7976;52.526;13.326;2022-12-18T04:48:39;102957.25;;;-3.11;82.36
15750;BME280;7976;52.526;13.326;2022-12-18T04:51:06;102941.91;;;-3.11;82.14
15750;BME280;7976;52.526;13.326;2022-12-18T04:53:33;102935.81;;;-3.13;81.87
15750;BME280;7976;52.526;13.326;2022-12-18T04:56:08;102936.47;;;-3.17;81.61
15750;BME280;7976;52.526;13.326;2022-12-18T04:58:36;102947.41;;;-3.19;81.53
15750;BME280;7976;52.526;13.326;2022-12-18T05:01:04;102951.31;;;-3.26;81.22
15750;BME280;7976;52.526;13.326;2022-12-18T05:03:34;102954.34;;;-3.33;81.35
15750;BME280;7976;52.526;13.326;2022-12-18T05:06:03;102972.25;;;-3.33;81.66
15750;BME280;7976;52.526;13.326;2022-12-18T05:08:30;102962.81;;;-3.34;81.77
15750;BME280;7976;52.526;13.326;2022-12-18T05:11:03;102962.00;;;-3.33;81.91
15750;BME280;7976;52.526;13.326;2022-12-18T05:13:30;102970.19;;;-3.24;82.39
15750;BME280;7976;52.526;13.326;2022-12-18T05:15:58;102973.72;;;-3.22;81.84
15750;BME280;7976;52.526;13.326;2022-12-18T05:18:25;102970.13;;;-3.25;82.01
15750;BME280;7976;52.526;13.326;2022-12-18T05:20:53;102976.97;;;-3.24;81.81
15750;BME280;7976;52.526;13.326;2022-12-18T05:23:23;102976.38;;;-3.20;82.00
15750;BME280;7976;52.526;13.326;2022-12-18T05:25:51;102982.34;;;-3.20;81.75
15750;BME280;7976;52.526;13.326;2022-12-18T05:28:19;102984.81;;;-3.21;81.54
15750;BME280;7976;52.526;13.326;2022-12-18T05:30:48;102989.69;;;-3.26;81.39
15750;BME280;7976;52.526;13.326;2022-12-18T05:33:16;102991.03;;;-3.32;81.47
15750;BME280;7976;52.526;13.326;2022-12-18T05:35:43;102990.59;;;-3.40;81.53
15750;BME280;7976;52.526;13.326;2022-12-18T05:38:10;102992.81;;;-3.46;81.61
15750;BME280;7976;52.526;13.326;2022-12-18T05:40:41;102995.56;;;-3.43;82.22
15750;BME280;7976;52.526;13.326;2022-12-18T05:43:09;102988.31;;;-3.35;82.46
15750;BME280;7976;52.526;13.326;2022-12-18T05:45:37;102987.06;;;-3.27;82.51
15750;BME280;7976;52.526;13.326;2022-12-18T05:48:05;102989.78;;;-3.24;82.52
15750;BME280;7976;52.526;13.326;2022-12-18T05:50:34;102994.72;;;-3.27;82.23
15750;BME280;7976;52.526;13.326;2022-12-18T05:53:01;103004.06;;;-3.28;82.38
15750;BME280;7976;52.526;13.326;2022-12-18T05:55:28;102997.03;;;-3.32;82.39
15750;BME280;7976;52.526;13.326;2022-12-18T05:57:56;102998.63;;;-3.34;82.33
15750;BME280;7976;52.526;13.326;2022-12-18T06:00:23;103002.94;;;-3.33;82.42
15750;BME280;7976;52.526;13.326;2022-12-18T06:02:50;103001.63;;;-3.41;82.12
15750;BME280;7976;52.526;13.326;2022-12-18T06:05:16;103009.22;;;-3.42;82.27
15750;BME280;7976;52.526;13.326;2022-12-18T06:07:43;103018.72;;;-3.40;82.14
15750;BME280;7976;52.526;13.326;2022-12-18T06:10:10;103018.94;;;-3.37;82.61
15750;BME280;7976;52.526;13.326;2022-12-18T06:12:37;103009.91;;;-3.30;82.44
15750;BME280;7976;52.526;13.326;2022-12-18T06:15:07;103017.13;;;-3.23;82.91
15750;BME280;7976;52.526;13.326;2022-12-18T06:17:35;103017.63;;;-3.14;82.83
15750;BME280;7976;52.526;13.326;2022-12-18T06:20:03;103015.88;;;-3.15;82.23
15750;BME280;7976;52.526;13.326;2022-12-18T06:22:31;103019.13;;;-3.18;82.25
15750;BME280;7976;52.526;13.326;2022-12-18T06:24:58;103021.53;;;-3.21;82.11
15750;BME280;7976;52.526;13.326;2022-12-18T06:27:25;103023.56;;;-3.30;81.78
15750;BME280;7976;52.526;13.326;2022-12-18T06:29:52;103012.38;;;-3.32;82.21
15750;BME280;7976;52.526;13.326;2022-12-18T06:32:20;103021.72;;;-3.32;81.88
15750;BME280;7976;52.526;13.326;2022-12-18T06:34:47;103028.28;;;-3.37;81.90
15750;BME280;7976;52.526;13.326;2022-12-18T06:37:14;103030.38;;;-3.45;82.25
15750;BME280;7976;52.526;13.326;2022-12-18T06:39:41;103049.44;;;-3.40;82.50
15750;BME280;7976;52.526;13.326;2022-12-18T06:42:08;103044.50;;;-3.37;82.49
15750;BME280;7976;52.526;13.326;2022-12-18T06:44:34;103062.75;;;-3.31;82.70
15750;BME280;7976;52.526;13.326;2022-12-18T06:47:01;103057.47;;;-3.34;82.39
15750;BME280;7976;52.526;13.326;2022-12-18T06:49:29;103055.88;;;-3.32;82.21
15750;BME280;7976;52.526;13.326;2022-12-18T06:51:56;103059.84;;;-3.37;82.36
15750;BME280;7976;52.526;13.326;2022-12-18T06:54:23;103065.06;;;-3.35;82.55
15750;BME280;7976;52.526;13.326;2022-12-18T06:56:49;103078.25;;;-3.28;82.75
15750;BME280;7976;52.526;13.326;2022-12-18T06:59:16;103081.19;;;-3.22;82.55
15750;BME280;7976;52.526;13.326;2022-12-18T07:01:43;103069.00;;;-3.26;82.16
15750;BME280;7976;52.526;13.326;2022-12-18T07:04:10;103068.75;;;-3.30;82.05
15750;BME280;7976;52.526;13.326;2022-12-18T07:06:38;103062.13;;;-3.27;82.42
15750;BME280;7976;52.526;13.326;2022-12-18T07:09:05;103057.34;;;-3.21;82.59
15750;BME280;7976;52.526;13.326;2022-12-18T07:11:33;103061.66;;;-3.20;82.23
15750;BME280;7976;52.526;13.326;2022-12-18T07:14:00;103064.22;;;-3.20;81.97
15750;BME280;7976;52.526;13.326;2022-12-18T07:16:27;103068.41;;;-3.22;81.88
15750;BME280;7976;52.526;13.326;2022-12-18T07:18:55;103067.06;;;-3.30;81.76
15750;BME280;7976;52.526;13.326;2022-12-18T07:21:23;103065.84;;;-3.36;81.93
15750;BME280;7976;52.526;13.326;2022-12-18T07:23:52;103070.44;;;-3.31;82.45
15750;BME280;7976;52.526;13.326;2022-12-18T07:26:21;103068.94;;;-3.27;82.54
15750;BME280;7976;52.526;13.326;2022-12-18T07:28:48;103061.41;;;-3.24;82.56
15750;BME280;7976;52.526;13.326;2022-12-18T07:31:19;103063.88;;;-3.26;82.37
15750;BME280;7976;52.526;13.326;2022-12-18T07:33:47;103070.16;;;-3.21;82.69
15750;BME280;7976;52.526;13.326;2022-12-18T07:36:14;103072.25;;;-3.14;82.43
15750;BME280;7976;52.526;13.326;2022-12-18T07:38:42;103067.84;;;-3.16;82.05
15750;BME280;7976;52.526;13.326;2022-12-18T07:41:13;103065.84;;;-3.22;82.07
15750;BME280;7976;52.526;13.326;2022-12-18T07:43:41;103068.19;;;-3.25;82.01
15750;BME280;7976;52.526;13.326;2022-12-18T07:46:09;103076.44;;;-3.30;82.15
15750;BME280;7976;52.526;13.326;2022-12-18T07:48:36;103062.91;;;-3.28;82.49
15750;BME280;7976;52.526;13.326;2022-12-18T07:51:06;103065.13;;;-3.19;82.67
15750;BME280;7976;52.526;13.326;2022-12-18T07:53:35;103067.41;;;-3.24;82.47
15750;BME280;7976;52.526;13.326;2022-12-18T07:56:05;103057.38;;;-3.35;82.08
15750;BME280;7976;52.526;13.326;2022-12-18T07:58:35;103064.16;;;-3.36;82.69
15750;BME280;7976;52.526;13.326;2022-12-18T08:01:04;103070.09;;;-3.37;82.49
15750;BME280;7976;52.526;13.326;2022-12-18T08:03:31;103066.66;;;-3.37;82.52
15750;BME280;7976;52.526;13.326;2022-12-18T08:06:03;103072.81;;;-3.34;82.81
15750;BME280;7976;52.526;13.326;2022-12-18T08:08:31;103070.19;;;-3.35;82.87
15750;BME280;7976;52.526;13.326;2022-12-18T08:10:58;103076.97;;;-3.36;82.86
15750;BME280;7976;52.526;13.326;2022-12-18T08:13:26;103078.38;;;-3.41;82.94
15750;BME280;7976;52.526;13.326;2022-12-18T08:15:57;103077.41;;;-3.43;83.30
15750;BME280;7976;52.526;13.326;2022-12-18T08:18:24;103087.91;;;-3.38;83.61
15750;BME280;7976;52.526;13.326;2022-12-18T08:20:51;103083.66;;;-3.38;83.43
15750;BME280;7976;52.526;13.326;2022-12-18T08:23:18;103084.53;;;-3.37;83.85
15750;BME280;7976;52.526;13.326;2022-12-18T08:25:45;103079.75;;;-3.31;84.11
15750;BME280;7976;52.526;13.326;2022-12-18T08:28:12;103087.25;;;-3.20;84.18
15750;BME280;7976;52.526;13.326;2022-12-18T08:30:39;103088.38;;;-3.15;83.59
15750;BME280;7976;52.526;13.326;2022-12-18T08:33:07;103090.78;;;-3.18;83.24
15750;BME280;7976;52.526;13.326;2022-12-18T08:35:35;103096.34;;;-3.25;83.55
15750;BME280;7976;52.526;13.326;2022-12-18T08:38:03;103098.13;;;-3.24;83.54
15750;BME280;7976;52.526;13.326;2022-12-18T08:40:30;103092.28;;;-3.21;83.88
15750;BME280;7976;52.526;13.326;2022-12-18T08:42:57;103103.41;;;-3.21;83.76
15750;BME280;7976;52.526;13.326;2022-12-18T08:45:41;103104.38;;;-3.19;84.10
15750;BME280;7976;52.526;13.326;2022-12-18T08:48:09;103103.66;;;-3.16;83.77
15750;BME280;7976;52.526;13.326;2022-12-18T08:50:36;103098.81;;;-3.26;83.27
15750;BME280;7976;52.526;13.326;2022-12-18T08:53:03;103108.00;;;-3.30;83.77
15750;BME280;7976;52.526;13.326;2022-12-18T08:55:30;103116.03;;;-3.24;83.91
15750;BME280;7976;52.526;13.326;2022-12-18T08:57:57;103117.19;;;-3.19;84.08
15750;BME280;7976;52.526;13.326;2022-12-18T09:00:24;103120.88;;;-3.14;83.77
15750;BME280;7976;52.526;13.326;2022-12-18T09:02:51;103121.56;;;-3.16;83.66
15750;BME280;7976;52.526;13.326;2022-12-18T09:05:19;103120.72;;;-3.17;83.93
15750;BME280;7976;52.526;13.326;2022-12-18T09:07:46;103130.59;;;-3.08;83.95
15750;BME280;7976;52.526;13.326;2022-12-18T09:10:12;103133.72;;;-2.98;84.05
15750;BME280;7976;52.526;13.326;2022-12-18T09:12:39;103132.47;;;-2.90;83.91
15750;BME280;7976;52.526;13.326;2022-12-18T09:15:07;103134.09;;;-2.92;83.38
15750;BME280;7976;52.526;13.326;2022-12-18T09:17:33;103138.16;;;-2.95;83.36
15750;BME280;7976;52.526;13.326;2022-12-18T09:20:00;103135.50;;;-2.97;82.97
15750;BME280;7976;52.526;13.326;2022-12-18T09:22:28;103131.97;;;-2.99;82.82
15750;BME280;7976;52.526;13.326;2022-12-18T09:24:55;103123.50;;;-2.98;83.13
15750;BME280;7976;52.526;13.326;2022-12-18T09:27:22;103132.31;;;-2.93;83.20
15750;BME280;7976;52.526;13.326;2022-12-18T09:29:49;103135.03;;;-2.90;83.17
15750;BME280;7976;52.526;13.326;2022-12-18T09:32:16;103139.38;;;-2.89;82.98
15750;BME280;7976;52.526;13.326;2022-12-18T09:34:42;103148.19;;;-2.84;83.32
15750;BME280;7976;52.526;13.326;2022-12-18T09:37:09;103138.28;;;-2.78;83.09
15750;BME280;7976;52.526;13.326;2022-12-18T09:39:38;103136.53;;;-2.79;82.74
15750;BME280;7976;52.526;13.326;2022-12-18T09:42:05;103125.16;;;-2.84;82.76
15750;BME280;7976;52.526;13.326;2022-12-18T09:44:36;103121.69;;;-2.84;82.69
15750;BME280;7976;52.526;13.326;2022-12-18T09:47:10;103118.91;;;-2.89;82.72
15750;BME280;7976;52.526;13.326;2022-12-18T09:49:44;103126.66;;;-2.87;82.95
15750;BME280;7976;52.526;13.326;2022-12-18T09:52:21;103119.13;;;-2.84;82.91
15750;BME280;7976;52.526;13.326;2022-12-18T09:54:56;103111.63;;;-2.81;83.17
15750;BME280;7976;52.526;13.326;2022-12-18T09:57:28;103100.84;;;-2.76;83.19
15750;BME280;7976;52.526;13.326;2022-12-18T10:00:03;103096.03;;;-2.70;83.02
15750;BME280;7976;52.526;13.326;2022-12-18T10:02:37;103081.72;;;-2.66;83.27
15750;BME280;7976;52.526;13.326;2022-12-18T10:05:11;103066.56;;;-2.63;82.88
15750;BME280;7976;52.526;13.326;2022-12-18T10:07:55;103070.44;;;-2.70;82.57
15750;BME280;7976;52.526;13.326;2022-12-18T10:10:37;103068.84;;;-2.68;82.64
15750;BME280;7976;52.526;13.326;2022-12-18T10:13:17;103076.22;;;-2.58;83.28
15750;BME280;7976;52.526;13.326;2022-12-18T10:16:08;103071.75;;;-2.45;83.44
15750;BME280;7976;52.526;13.326;2022-12-18T10:19:03;103076.50;;;-2.37;83.19
15750;BME280;7976;52.526;13.326;2022-12-18T10:21:45;103081.00;;;-2.33;83.38
15750;BME280;7976;52.526;13.326;2022-12-18T10:24:26;103083.94;;;-2.25;83.12
15750;BME280;7976;52.526;13.326;2022-12-18T10:27:11;103073.63;;;-2.27;83.24
15750;BME280;7976;52.526;13.326;2022-12-18T10:29:44;103078.59;;;-2.30;83.12
15750;BME280;7976;52.526;13.326;2022-12-18T10:32:20;103080.41;;;-2.27;83.24
15750;BME280;7976;52.526;13.326;2022-12-18T10:34:49;103076.25;;;-2.25;83.48
15750;BME280;7976;52.526;13.326;2022-12-18T10:37:19;103064.41;;;-2.23;83.52
15750;BME280;7976;52.526;13.326;2022-12-18T10:40:11;103062.22;;;-2.16;83.67
15750;BME280;7976;52.526;13.326;2022-12-18T10:42:39;103055.50;;;-2.14;83.21
15750;BME280;7976;52.526;13.326;2022-12-18T10:45:12;103052.94;;;-2.14;83.26
15750;BME280;7976;52.526;13.326;2022-12-18T10:47:43;103047.59;;;-2.18;83.48
15750;BME280;7976;52.526;13.326;2022-12-18T10:50:29;103043.50;;;-2.15;83.90
15750;BME280;7976;52.526;13.326;2022-12-18T10:52:59;103042.06;;;-2.10;84.08
15750;BME280;7976;52.526;13.326;2022-12-18T10:55:33;103036.50;;;-2.01;84.06
15750;BME280;7976;52.526;13.326;2022-12-18T10:58:22;103030.97;;;-1.93;83.89
15750;BME280;7976;52.526;13.326;2022-12-18T11:01:06;103018.38;;;-1.88;83.85
15750;BME280;7976;52.526;13.326;2022-12-18T11:03:36;103020.19;;;-1.86;83.61
15750;BME280;7976;52.526;13.326;2022-12-18T11:06:08;103020.59;;;-1.78;83.71
15750;BME280;7976;52.526;13.326;2022-12-18T11:08:35;103018.31;;;-1.72;83.22
15750;BME280;7976;52.526;13.326;2022-12-18T11:11:07;103015.03;;;-1.70;83.46
15750;BME280;7976;52.526;13.326;2022-12-18T11:13:58;103023.78;;;-1.66;83.01
15750;BME280;7976;52.526;13.326;2022-12-18T11:16:27;103027.13;;;-1.67;83.00
15750;BME280;7976;52.526;13.326;2022-12-18T11:19:19;103035.41;;;-1.73;82.68
15750;BME280;7976;52.526;13.326;2022-12-18T11:21:47;103031.16;;;-1.72;82.85
15750;BME280;7976;52.526;13.326;2022-12-18T11:24:29;103024.41;;;-1.70;82.84
15750;BME280;7976;52.526;13.326;2022-12-18T11:26:59;103031.69;;;-1.62;83.21
15750;BME280;7976;52.526;13.326;2022-12-18T11:29:37;103029.25;;;-1.59;82.99
15750;BME280;7976;52.526;13.326;2022-12-18T11:32:34;103024.53;;;-1.51;83.20
15750;BME280;7976;52.526;13.326;2022-12-18T11:35:14;103028.19;;;-1.46;83.07
15750;BME280;7976;52.526;13.326;2022-12-18T11:37:50;103018.72;;;-1.47;82.70
15750;BME280;7976;52.526;13.326;2022-12-18T11:40:27;103020.03;;;-1.55;82.66
15750;BME280;7976;52.526;13.326;2022-12-18T11:43:04;103024.88;;;-1.61;82.69
15750;BME280;7976;52.526;13.326;2022-12-18T11:45:40;103024.56;;;-1.67;82.82
15750;BME280;7976;52.526;13.326;2022-12-18T11:48:17;103034.09;;;-1.65;83.10
15750;BME280;7976;52.526;13.326;2022-12-18T11:50:50;103037.78;;;-1.60;83.42
15750;BME280;7976;52.526;13.326;2022-12-18T11:53:19;103044.91;;;-1.54;83.50
15750;BME280;7976;52.526;13.326;2022-12-18T11:56:00;103049.75;;;-1.43;83.36
15750;BME280;7976;52.526;13.326;2022-12-18T11:58:47;103060.66;;;-1.47;83.31
15750;BME280;7976;52.526;13.326;2022-12-18T12:01:45;103054.63;;;-1.47;83.19
15750;BME280;7976;52.526;13.326;2022-12-18T12:04:42;103061.09;;;-1.55;83.25
15750;BME280;7976;52.526;13.326;2022-12-18T12:07:29;103052.13;;;-1.63;83.40
15750;BME280;7976;52.526;13.326;2022-12-18T12:10:13;103053.94;;;-1.61;83.37
15750;BME280;7976;52.526;13.326;2022-12-18T12:13:02;103058.44;;;-1.57;83.18
15750;BME280;7976;52.526;13.326;2022-12-18T12:15:46;103057.88;;;-1.51;83.88
15750;BME280;7976;52.526;13.326;2022-12-18T12:18:34;103059.19;;;-1.42;83.58
15750;BME280;7976;52.526;13.326;2022-12-18T12:21:14;103061.19;;;-1.36;83.62
15750;BME280;7976;52.526;13.326;2022-12-18T12:23:52;103061.53;;;-1.29;83.60
15750;BME280;7976;52.526;13.326;2022-12-18T12:26:30;103064.50;;;-1.21;83.41
15750;BME280;7976;52.526;13.326;2022-12-18T12:29:13;103072.41;;;-1.16;83.10
15750;BME280;7976;52.526;13.326;2022-12-18T12:32:04;103071.09;;;-1.26;82.85
15750;BME280;7976;52.526;13.326;2022-12-18T12:34:52;103076.94;;;-1.29;83.20
15750;BME280;7976;52.526;13.326;2022-12-18T12:37:38;103077.56;;;-1.34;82.53
15750;BME280;7976;52.526;13.326;2022-12-18T12:40:15;103073.28;;;-1.34;82.62
15750;BME280;7976;52.526;13.326;2022-12-18T12:42:50;103072.63;;;-1.30;82.48
15750;BME280;7976;52.526;13.326;2022-12-18T12:45:42;103071.59;;;-1.33;82.43
15750;BME280;7976;52.526;13.326;2022-12-18T12:48:20;103068.66;;;-1.41;82.35
15750;BME280;7976;52.526;13.326;2022-12-18T12:50:53;103062.50;;;-1.44;82.73
15750;BME280;7976;52.526;13.326;2022-12-18T12:53:30;103044.19;;;-1.34;83.09
15750;BME280;7976;52.526;13.326;2022-12-18T12:55:59;103033.75;;;-1.37;82.55
15750;BME280;7976;52.526;13.326;2022-12-18T12:58:38;103026.59;;;-1.44;82.45
15750;BME280;7976;52.526;13.326;2022-12-18T13:01:17;103022.97;;;-1.48;82.63
15750;BME280;7976;52.526;13.326;2022-12-18T13:04:01;103009.25;;;-1.48;82.88
15750;BME280;7976;52.526;13.326;2022-12-18T13:06:44;103017.78;;;-1.49;83.02
15750;BME280;7976;52.526;13.326;2022-12-18T13:09:13;103010.94;;;-1.49;82.88
15750;BME280;7976;52.526;13.326;2022-12-18T13:11:42;103011.75;;;-1.50;82.97
15750;BME280;7976;52.526;13.326;2022-12-18T13:14:31;103032.34;;;-1.48;83.23
15750;BME280;7976;52.526;13.326;2022-12-18T13:17:29;103025.47;;;-1.49;83.06